sensor_id;sensor_type;location;lat;lon;timestamp;pressure;altitude;pressure_sealevel;temperature;humidity
68965;BME280;56017;48.680;8.998;2023-04-26T00:02:22;96730;;;7.8;78
68965;BME280;56017;48.680;8.998;2023-04-26T00:04:53;96720;;;7.8;78
68965;BME280;56017;48.680;8.998;2023-04-26T00:07:24;96720;;;7.8;78.5
68965;BME280;56017;48.680;8.998;2023-04-26T00:09:55;96720;;;7.9;78.5
68965;BME280;56017;48.680;8.998;2023-04-26T00:12:26;96720;;;7.9;78
68965;BME280;56017;48.680;8.998;2023-04-26T00:14:57;96720;;;8;78
68965;BME280;56017;48.680;8.998;2023-04-26T00:17:34;96720;;;8;78
68965;BME280;56017;48.680;8.998;2023-04-26T00:20:11;96720;;;8;78
68965;BME280;56017;48.680;8.998;2023-04-26T00:22:48;96720;;;7.8;78.5
68965;BME280;56017;48.680;8.998;2023-04-26T00:27:28;96720;;;7.8;78.5
68965;BME280;56017;48.680;8.998;2023-04-26T00:30:07;96720;;;7.8;78.5
68965;BME280;56017;48.680;8.998;2023-04-26T00:32:30;96720;;;7.8;78.5
68965;BME280;56017;48.680;8.998;2023-04-26T00:35:03;96720;;;7.8;78.5
68965;BME280;56017;48.680;8.998;2023-04-26T00:37:32;96720;;;7.7;78.5
68965;BME280;56017;48.680;8.998;2023-04-26T00:42:27;96720;;;7.8;78.5
68965;BME280;56017;48.680;8.998;2023-04-26T00:44:57;96720;;;7.7;78.5
68965;BME280;56017;48.680;8.998;2023-04-26T00:47:28;96720;;;7.8;78
68965;BME280;56017;48.680;8.998;2023-04-26T00:50:00;96720;;;7.8;78
68965;BME280;56017;48.680;8.998;2023-04-26T00:52:30;96720;;;7.6;78
68965;BME280;56017;48.680;8.998;2023-04-26T00:55:00;96720;;;7.5;78.5
68965;BME280;56017;48.680;8.998;2023-04-26T01:00:08;96720;;;7.6;78.5
68965;BME280;56017;48.680;8.998;2023-04-26T01:02:39;96730;;;7.6;78.5
68965;BME280;56017;48.680;8.998;2023-04-26T01:05:10;96730;;;7.6;78
68965;BME280;56017;48.680;8.998;2023-04-26T01:07:41;96730;;;7.6;78
68965;BME280;56017;48.680;8.998;2023-04-26T01:10:19;96740;;;7.6;78.5
68965;BME280;56017;48.680;8.998;2023-04-26T01:12:43;96740;;;7.6;78.5
68965;BME280;56017;48.680;8.998;2023-04-26T01:15:14;96740;;;7.6;78
68965;BME280;56017;48.680;8.998;2023-04-26T01:17:45;96730;;;7.6;78.5
68965;BME280;56017;48.680;8.998;2023-04-26T01:23:06;96720;;;7.6;78
68965;BME280;56017;48.680;8.998;2023-04-26T01:25:22;96720;;;7.5;78
68965;BME280;56017;48.680;8.998;2023-04-26T01:27:53;96720;;;7.4;78.5
68965;BME280;56017;48.680;8.998;2023-04-26T01:32:46;96720;;;7.4;78.5
68965;BME280;56017;48.680;8.998;2023-04-26T01:35:17;96720;;;7.4;78.5
68965;BME280;56017;48.680;8.998;2023-04-26T01:37:55;96720;;;7.5;78
68965;BME280;56017;48.680;8.998;2023-04-26T01:40:19;96720;;;7.5;78
68965;BME280;56017;48.680;8.998;2023-04-26T01:42:50;96720;;;7.4;78
68965;BME280;56017;48.680;8.998;2023-04-26T01:45:21;96730;;;7.3;78
68965;BME280;56017;48.680;8.998;2023-04-26T01:47:52;96720;;;7.3;78
68965;BME280;56017;48.680;8.998;2023-04-26T01:50:23;96720;;;7.2;78
68965;BME280;56017;48.680;8.998;2023-04-26T01:52:54;96720;;;7.2;78
68965;BME280;56017;48.680;8.998;2023-04-26T01:55:25;96710;;;7.1;78
68965;BME280;56017;48.680;8.998;2023-04-26T01:57:56;96710;;;7;78
68965;BME280;56017;48.680;8.998;2023-04-26T02:00:27;96710;;;6.9;78.5
68965;BME280;56017;48.680;8.998;2023-04-26T02:02:57;96710;;;6.9;78
68965;BME280;56017;48.680;8.998;2023-04-26T02:05:28;96710;;;6.9;78
68965;BME280;56017;48.680;8.998;2023-04-26T02:07:59;96710;;;6.9;78
68965;BME280;56017;48.680;8.998;2023-04-26T02:10:30;96710;;;6.9;78
68965;BME280;56017;48.680;8.998;2023-04-26T02:13:01;96710;;;6.9;78
68965;BME280;56017;48.680;8.998;2023-04-26T02:15:32;96710;;;6.8;78
68965;BME280;56017;48.680;8.998;2023-04-26T02:18:03;96710;;;6.7;78
68965;BME280;56017;48.680;8.998;2023-04-26T02:20:34;96720;;;6.6;78
68965;BME280;56017;48.680;8.998;2023-04-26T02:23:04;96720;;;6.6;78
68965;BME280;56017;48.680;8.998;2023-04-26T02:25:36;96720;;;6.5;78
68965;BME280;56017;48.680;8.998;2023-04-26T02:28:07;96720;;;6.4;78
68965;BME280;56017;48.680;8.998;2023-04-26T02:30:37;96720;;;6.3;78
68965;BME280;56017;48.680;8.998;2023-04-26T02:35:32;96730;;;6.1;79
68965;BME280;56017;48.680;8.998;2023-04-26T02:38:03;96730;;;6.2;78.5
68965;BME280;56017;48.680;8.998;2023-04-26T02:40:33;96730;;;6.3;78.5
68965;BME280;56017;48.680;8.998;2023-04-26T02:43:04;96730;;;6.4;78
68965;BME280;56017;48.680;8.998;2023-04-26T02:48:06;96720;;;6.3;78
68965;BME280;56017;48.680;8.998;2023-04-26T02:50:37;96720;;;6.2;78
68965;BME280;56017;48.680;8.998;2023-04-26T02:53:07;96720;;;6.2;78.5
68965;BME280;56017;48.680;8.998;2023-04-26T02:55:51;96720;;;6.3;78.5
68965;BME280;56017;48.680;8.998;2023-04-26T02:58:28;96730;;;6.4;78
68965;BME280;56017;48.680;8.998;2023-04-26T03:00:52;96730;;;6.5;78
68965;BME280;56017;48.680;8.998;2023-04-26T03:03:16;96730;;;6.5;78
68965;BME280;56017;48.680;8.998;2023-04-26T03:05:54;96730;;;6.4;78
68965;BME280;56017;48.680;8.998;2023-04-26T03:08:18;96730;;;6.3;78
68965;BME280;56017;48.680;8.998;2023-04-26T03:10:49;96730;;;6.1;79
68965;BME280;56017;48.680;8.998;2023-04-26T03:13:21;96740;;;6;79
68965;BME280;56017;48.680;8.998;2023-04-26T03:15:51;96730;;;5.9;79
68965;BME280;56017;48.680;8.998;2023-04-26T03:18:22;96730;;;6;79
68965;BME280;56017;48.680;8.998;2023-04-26T03:21:00;96730;;;6.1;78.5
68965;BME280;56017;48.680;8.998;2023-04-26T03:23:24;96730;;;6.1;78.5
68965;BME280;56017;48.680;8.998;2023-04-26T03:25:55;96730;;;6.2;78.5
68965;BME280;56017;48.680;8.998;2023-04-26T03:28:26;96730;;;6.2;78
68965;BME280;56017;48.680;8.998;2023-04-26T03:30:57;96720;;;6;78.5
68965;BME280;56017;48.680;8.998;2023-04-26T03:33:29;96720;;;6;78
68965;BME280;56017;48.680;8.998;2023-04-26T03:35:59;96720;;;5.9;78
68965;BME280;56017;48.680;8.998;2023-04-26T03:38:30;96720;;;5.9;78
68965;BME280;56017;48.680;8.998;2023-04-26T03:43:32;96720;;;5.7;78
68965;BME280;56017;48.680;8.998;2023-04-26T03:46:03;96710;;;5.6;78
68965;BME280;56017;48.680;8.998;2023-04-26T03:48:40;96720;;;5.5;78
68965;BME280;56017;48.680;8.998;2023-04-26T03:51:05;96720;;;5.3;78
68965;BME280;56017;48.680;8.998;2023-04-26T03:53:36;96720;;;5.2;78
68965;BME280;56017;48.680;8.998;2023-04-26T03:56:07;96720;;;5.1;78.5
68965;BME280;56017;48.680;8.998;2023-04-26T03:58:38;96720;;;5.1;78
68965;BME280;56017;48.680;8.998;2023-04-26T04:01:09;96720;;;5.1;78.5
68965;BME280;56017;48.680;8.998;2023-04-26T04:03:39;96720;;;5.1;78.5
68965;BME280;56017;48.680;8.998;2023-04-26T04:08:41;96730;;;5.2;78
68965;BME280;56017;48.680;8.998;2023-04-26T04:11:13;96730;;;5.2;78
68965;BME280;56017;48.680;8.998;2023-04-26T04:13:43;96730;;;5.2;78
68965;BME280;56017;48.680;8.998;2023-04-26T04:16:14;96730;;;5.2;78
68965;BME280;56017;48.680;8.998;2023-04-26T04:18:45;96720;;;5.2;77.5
68965;BME280;56017;48.680;8.998;2023-04-26T04:21:23;96720;;;5.1;78
68965;BME280;56017;48.680;8.998;2023-04-26T04:23:47;96730;;;5;78
68965;BME280;56017;48.680;8.998;2023-04-26T04:26:18;96720;;;5;78
68965;BME280;56017;48.680;8.998;2023-04-26T04:28:49;96730;;;5;78
68965;BME280;56017;48.680;8.998;2023-04-26T04:31:20;96730;;;4.9;78
68965;BME280;56017;48.680;8.998;2023-04-26T04:33:51;96730;;;4.9;78
68965;BME280;56017;48.680;8.998;2023-04-26T04:36:22;96730;;;5;78
68965;BME280;56017;48.680;8.998;2023-04-26T04:38:53;96740;;;5.1;78
68965;BME280;56017;48.680;8.998;2023-04-26T04:41:31;96730;;;5.1;78
68965;BME280;56017;48.680;8.998;2023-04-26T04:43:55;96740;;;5.2;78
68965;BME280;56017;48.680;8.998;2023-04-26T04:48:57;96740;;;5.3;77.5
68965;BME280;56017;48.680;8.998;2023-04-26T04:51:28;96740;;;5.4;77.5
68965;BME280;56017;48.680;8.998;2023-04-26T04:54:07;96740;;;5.4;77.5
68965;BME280;56017;48.680;8.998;2023-04-26T04:56:30;96740;;;5.5;77.5
68965;BME280;56017;48.680;8.998;2023-04-26T04:59:07;96750;;;5.6;77.5
68965;BME280;56017;48.680;8.998;2023-04-26T05:01:52;96750;;;5.7;77.5
68965;BME280;56017;48.680;8.998;2023-04-26T05:04:08;96750;;;5.7;77.5
68965;BME280;56017;48.680;8.998;2023-04-26T05:06:39;96740;;;5.7;77.5
68965;BME280;56017;48.680;8.998;2023-04-26T05:09:02;96750;;;5.6;78
68965;BME280;56017;48.680;8.998;2023-04-26T05:11:33;96750;;;5.7;78
68965;BME280;56017;48.680;8.998;2023-04-26T05:14:05;96750;;;5.7;78
68965;BME280;56017;48.680;8.998;2023-04-26T05:16:35;96750;;;5.7;77.5
68965;BME280;56017;48.680;8.998;2023-04-26T05:19:06;96760;;;5.7;77.5
68965;BME280;56017;48.680;8.998;2023-04-26T05:24:08;96770;;;5.7;78
68965;BME280;56017;48.680;8.998;2023-04-26T05:26:39;96780;;;5.8;78.5
68965;BME280;56017;48.680;8.998;2023-04-26T05:29:10;96770;;;5.9;78
68965;BME280;56017;48.680;8.998;2023-04-26T05:31:47;96770;;;6.1;77.5
68965;BME280;56017;48.680;8.998;2023-04-26T05:34:12;96780;;;6.2;77.5
68965;BME280;56017;48.680;8.998;2023-04-26T05:36:43;96780;;;6.3;77.5
68965;BME280;56017;48.680;8.998;2023-04-26T05:39:14;96780;;;6.5;77.5
68965;BME280;56017;48.680;8.998;2023-04-26T05:41:45;96780;;;6.5;77.5
68965;BME280;56017;48.680;8.998;2023-04-26T05:44:16;96780;;;6.5;77.5
68965;BME280;56017;48.680;8.998;2023-04-26T05:46:47;96780;;;6.4;78
68965;BME280;56017;48.680;8.998;2023-04-26T05:49:18;96790;;;6.4;78
68965;BME280;56017;48.680;8.998;2023-04-26T05:51:49;96790;;;6.5;78
68965;BME280;56017;48.680;8.998;2023-04-26T05:54:26;96780;;;6.6;78
68965;BME280;56017;48.680;8.998;2023-04-26T05:56:51;96780;;;6.6;78
68965;BME280;56017;48.680;8.998;2023-04-26T05:59:22;96780;;;6.6;78.5
68965;BME280;56017;48.680;8.998;2023-04-26T06:01:52;96780;;;6.9;78
68965;BME280;56017;48.680;8.998;2023-04-26T06:04:24;96790;;;7;78
68965;BME280;56017;48.680;8.998;2023-04-26T06:06:54;96790;;;7.2;78
68965;BME280;56017;48.680;8.998;2023-04-26T06:09:32;96790;;;7.3;77.5
68965;BME280;56017;48.680;8.998;2023-04-26T06:11:56;96790;;;7.4;77.5
68965;BME280;56017;48.680;8.998;2023-04-26T06:14:27;96800;;;7.4;77.5
68965;BME280;56017;48.680;8.998;2023-04-26T06:16:58;96790;;;7.4;78
68965;BME280;56017;48.680;8.998;2023-04-26T06:19:34;96780;;;7.6;78
68965;BME280;56017;48.680;8.998;2023-04-26T06:22:00;96790;;;7.6;77.5
68965;BME280;56017;48.680;8.998;2023-04-26T06:24:31;96800;;;7.6;77.5
68965;BME280;56017;48.680;8.998;2023-04-26T06:27:02;96800;;;7.6;77.5
68965;BME280;56017;48.680;8.998;2023-04-26T06:29:33;96800;;;7.4;78
68965;BME280;56017;48.680;8.998;2023-04-26T06:32:04;96800;;;7.2;78
68965;BME280;56017;48.680;8.998;2023-04-26T06:34:41;96810;;;7.2;78.5
68965;BME280;56017;48.680;8.998;2023-04-26T06:37:05;96810;;;7.3;78
68965;BME280;56017;48.680;8.998;2023-04-26T06:39:36;96810;;;7.3;77.5
68965;BME280;56017;48.680;8.998;2023-04-26T06:42:07;96810;;;7.3;77.5
68965;BME280;56017;48.680;8.998;2023-04-26T06:44:38;96800;;;7.3;77.5
68965;BME280;56017;48.680;8.998;2023-04-26T06:47:09;96800;;;7.2;78
68965;BME280;56017;48.680;8.998;2023-04-26T06:49:43;96800;;;7.2;78
68965;BME280;56017;48.680;8.998;2023-04-26T06:52:11;96790;;;7.3;78
68965;BME280;56017;48.680;8.998;2023-04-26T06:54:49;96800;;;7.4;78.5
68965;BME280;56017;48.680;8.998;2023-04-26T06:57:13;96790;;;7.5;78
68965;BME280;56017;48.680;8.998;2023-04-26T06:59:51;96790;;;7.7;78
68965;BME280;56017;48.680;8.998;2023-04-26T07:02:15;96790;;;7.8;78
68965;BME280;56017;48.680;8.998;2023-04-26T07:04:47;96790;;;7.9;78
68965;BME280;56017;48.680;8.998;2023-04-26T07:07:17;96790;;;8;77.5
68965;BME280;56017;48.680;8.998;2023-04-26T07:09:49;96780;;;8.1;77.5
68965;BME280;56017;48.680;8.998;2023-04-26T07:12:19;96790;;;8.2;78
68965;BME280;56017;48.680;8.998;2023-04-26T07:14:52;96780;;;8.3;77.5
68965;BME280;56017;48.680;8.998;2023-04-26T07:17:21;96780;;;8.4;77.5
68965;BME280;56017;48.680;8.998;2023-04-26T07:19:52;96780;;;8.4;77.5
68965;BME280;56017;48.680;8.998;2023-04-26T07:22:23;96780;;;8.4;77.5
68965;BME280;56017;48.680;8.998;2023-04-26T07:24:58;96780;;;8.3;77.5
68965;BME280;56017;48.680;8.998;2023-04-26T07:27:25;96770;;;8.3;78
68965;BME280;56017;48.680;8.998;2023-04-26T07:30:03;96770;;;8.2;78
68965;BME280;56017;48.680;8.998;2023-04-26T07:32:27;96770;;;8.2;78
68965;BME280;56017;48.680;8.998;2023-04-26T07:34:58;96770;;;8.4;78
68965;BME280;56017;48.680;8.998;2023-04-26T07:37:29;96770;;;8.5;78
68965;BME280;56017;48.680;8.998;2023-04-26T07:40:00;96770;;;8.5;78
68965;BME280;56017;48.680;8.998;2023-04-26T07:42:31;96770;;;8.5;78
68965;BME280;56017;48.680;8.998;2023-04-26T07:45:02;96760;;;8.6;78
68965;BME280;56017;48.680;8.998;2023-04-26T07:47:33;96760;;;8.7;78
68965;BME280;56017;48.680;8.998;2023-04-26T07:50:10;96770;;;8.7;78
68965;BME280;56017;48.680;8.998;2023-04-26T07:52:35;96760;;;8.7;78
68965;BME280;56017;48.680;8.998;2023-04-26T07:55:06;96760;;;8.8;78
68965;BME280;56017;48.680;8.998;2023-04-26T07:57:43;96760;;;8.9;78
68965;BME280;56017;48.680;8.998;2023-04-26T08:00:14;96770;;;9;78
68965;BME280;56017;48.680;8.998;2023-04-26T08:02:38;96770;;;9;77.5
68965;BME280;56017;48.680;8.998;2023-04-26T08:05:10;96770;;;9;78
68965;BME280;56017;48.680;8.998;2023-04-26T08:07:41;96770;;;9.1;78
68965;BME280;56017;48.680;8.998;2023-04-26T08:10:18;96770;;;9.4;78
68965;BME280;56017;48.680;8.998;2023-04-26T08:12:42;96770;;;9.5;78
68965;BME280;56017;48.680;8.998;2023-04-26T08:15:14;96780;;;9.7;78
68965;BME280;56017;48.680;8.998;2023-04-26T08:17:44;96780;;;10;77.5
68965;BME280;56017;48.680;8.998;2023-04-26T08:20:16;96770;;;10.1;78
68965;BME280;56017;48.680;8.998;2023-04-26T08:22:46;96780;;;10.5;77.5
68965;BME280;56017;48.680;8.998;2023-04-26T08:25:17;96780;;;10.8;76.5
68965;BME280;56017;48.680;8.998;2023-04-26T08:27:48;96780;;;10.9;77
68965;BME280;56017;48.680;8.998;2023-04-26T08:30:19;96780;;;11.2;77.5
68965;BME280;56017;48.680;8.998;2023-04-26T08:35:20;96770;;;11.4;76.5
68965;BME280;56017;48.680;8.998;2023-04-26T08:37:51;96780;;;11.3;76.5
68965;BME280;56017;48.680;8.998;2023-04-26T08:40:23;96780;;;11.2;76.5
68965;BME280;56017;48.680;8.998;2023-04-26T08:47:57;96790;;;10.8;78
68965;BME280;56017;48.680;8.998;2023-04-26T08:50:26;96780;;;10.8;77.5
68965;BME280;56017;48.680;8.998;2023-04-26T08:52:57;96780;;;10.8;77.5
68965;BME280;56017;48.680;8.998;2023-04-26T08:55:28;96790;;;10.9;77.5
68965;BME280;56017;48.680;8.998;2023-04-26T09:00:31;96790;;;11;78
68965;BME280;56017;48.680;8.998;2023-04-26T09:15:46;96780;;;11.3;78.5
68965;BME280;56017;48.680;8.998;2023-04-26T09:25:40;96770;;;12;78
68965;BME280;56017;48.680;8.998;2023-04-26T09:30:43;96760;;;11.9;78
68965;BME280;56017;48.680;8.998;2023-04-26T09:35:44;96760;;;11.7;79
68965;BME280;56017;48.680;8.998;2023-04-26T09:38:16;96750;;;12.1;78
68965;BME280;56017;48.680;8.998;2023-04-26T09:45:48;96760;;;11.7;77.5
68965;BME280;56017;48.680;8.998;2023-04-26T09:50:51;96770;;;11.2;78
68965;BME280;56017;48.680;8.998;2023-04-26T09:55:53;96770;;;11.3;79
68965;BME280;56017;48.680;8.998;2023-04-26T09:58:23;96770;;;11.1;78.5
68965;BME280;56017;48.680;8.998;2023-04-26T10:00:53;96770;;;11.1;79
68965;BME280;56017;48.680;8.998;2023-04-26T10:05:55;96760;;;11.4;79
68965;BME280;56017;48.680;8.998;2023-04-26T10:10:57;96760;;;12;78
68965;BME280;56017;48.680;8.998;2023-04-26T10:13:30;96750;;;12.4;77
68965;BME280;56017;48.680;8.998;2023-04-26T10:16:00;96750;;;12.4;77
68965;BME280;56017;48.680;8.998;2023-04-26T10:21:06;96740;;;12.2;78
68965;BME280;56017;48.680;8.998;2023-04-26T10:23:32;96740;;;12.3;79
68965;BME280;56017;48.680;8.998;2023-04-26T10:26:07;96740;;;13;79
68965;BME280;56017;48.680;8.998;2023-04-26T10:33:36;96730;;;13.4;77
68965;BME280;56017;48.680;8.998;2023-04-26T10:38:39;96740;;;13;77.5
68965;BME280;56017;48.680;8.998;2023-04-26T10:46:50;96740;;;13.1;78
68965;BME280;56017;48.680;8.998;2023-04-26T10:48:42;96740;;;13.3;77
68965;BME280;56017;48.680;8.998;2023-04-26T10:51:27;96730;;;13.3;78
68965;BME280;56017;48.680;8.998;2023-04-26T10:53:57;96730;;;13.2;78.5
68965;BME280;56017;48.680;8.998;2023-04-26T10:58:46;96720;;;13.5;78.5
68965;BME280;56017;48.680;8.998;2023-04-26T11:01:24;96720;;;13.9;77.5
68965;BME280;56017;48.680;8.998;2023-04-26T11:04:04;96730;;;13.9;77.5
68965;BME280;56017;48.680;8.998;2023-04-26T11:06:18;96720;;;14;77.5
68965;BME280;56017;48.680;8.998;2023-04-26T11:08:49;96720;;;14;77
68965;BME280;56017;48.680;8.998;2023-04-26T11:11:20;96720;;;14;78
68965;BME280;56017;48.680;8.998;2023-04-26T11:13:51;96710;;;14.2;77.5
68965;BME280;56017;48.680;8.998;2023-04-26T11:16:27;96710;;;14.3;77.5
68965;BME280;56017;48.680;8.998;2023-04-26T11:18:53;96710;;;14.2;77.5
68965;BME280;56017;48.680;8.998;2023-04-26T11:23:55;96710;;;14.2;77.5
68965;BME280;56017;48.680;8.998;2023-04-26T11:26:33;96700;;;14.5;77
68965;BME280;56017;48.680;8.998;2023-04-26T11:28:57;96700;;;14.8;76
68965;BME280;56017;48.680;8.998;2023-04-26T11:31:29;96690;;;14.5;77
68965;BME280;56017;48.680;8.998;2023-04-26T11:34:03;96680;;;14.4;76.5
68965;BME280;56017;48.680;8.998;2023-04-26T11:36:30;96680;;;14.2;77.5
68965;BME280;56017;48.680;8.998;2023-04-26T11:39:01;96680;;;14.2;77
68965;BME280;56017;48.680;8.998;2023-04-26T11:41:32;96680;;;13.7;78
68965;BME280;56017;48.680;8.998;2023-04-26T11:44:03;96670;;;13.6;78
68965;BME280;56017;48.680;8.998;2023-04-26T11:46:34;96660;;;13.8;77.5
68965;BME280;56017;48.680;8.998;2023-04-26T11:49:06;96660;;;14.1;77.5
68965;BME280;56017;48.680;8.998;2023-04-26T11:51:36;96660;;;14.4;77.5
68965;BME280;56017;48.680;8.998;2023-04-26T11:54:07;96660;;;14.7;78
68965;BME280;56017;48.680;8.998;2023-04-26T11:56:38;96660;;;14.7;77.5
68965;BME280;56017;48.680;8.998;2023-04-26T11:59:09;96660;;;14.5;77.5
68965;BME280;56017;48.680;8.998;2023-04-26T12:04:11;96650;;;13.7;78.5
68965;BME280;56017;48.680;8.998;2023-04-26T12:09:13;96650;;;13.7;79
68965;BME280;56017;48.680;8.998;2023-04-26T12:14:15;96660;;;14.1;77.5
68965;BME280;56017;48.680;8.998;2023-04-26T12:16:46;96660;;;14.1;78
68965;BME280;56017;48.680;8.998;2023-04-26T12:19:21;96660;;;14.3;77
68965;BME280;56017;48.680;8.998;2023-04-26T12:21:57;96660;;;14.6;77
68965;BME280;56017;48.680;8.998;2023-04-26T12:24:20;96650;;;14.7;76.5
68965;BME280;56017;48.680;8.998;2023-04-26T12:27:05;96640;;;15.2;76.5
68965;BME280;56017;48.680;8.998;2023-04-26T12:29:21;96650;;;15.6;76
68965;BME280;56017;48.680;8.998;2023-04-26T12:34:22;96650;;;15.4;77
68965;BME280;56017;48.680;8.998;2023-04-26T12:37:12;96650;;;15.5;77
68965;BME280;56017;48.680;8.998;2023-04-26T12:39:24;96640;;;15.9;76
68965;BME280;56017;48.680;8.998;2023-04-26T12:41:55;96640;;;16.1;75
68965;BME280;56017;48.680;8.998;2023-04-26T12:44:26;96630;;;16.1;74.5
68965;BME280;56017;48.680;8.998;2023-04-26T12:47:05;96630;;;16.4;75
68965;BME280;56017;48.680;8.998;2023-04-26T12:49:28;96630;;;16.5;74
68965;BME280;56017;48.680;8.998;2023-04-26T12:52:06;96630;;;16.3;74.5
68965;BME280;56017;48.680;8.998;2023-04-26T12:54:30;96630;;;16.3;75.5
68965;BME280;56017;48.680;8.998;2023-04-26T12:59:32;96630;;;15.9;77
68965;BME280;56017;48.680;8.998;2023-04-26T13:02:03;96630;;;16;76
68965;BME280;56017;48.680;8.998;2023-04-26T13:04:35;96630;;;16.5;76
68965;BME280;56017;48.680;8.998;2023-04-26T13:07:05;96630;;;17.1;74
68965;BME280;56017;48.680;8.998;2023-04-26T13:09:36;96630;;;17.2;75
68965;BME280;56017;48.680;8.998;2023-04-26T13:12:14;96620;;;16.8;76
68965;BME280;56017;48.680;8.998;2023-04-26T13:14:38;96620;;;17.1;75
68965;BME280;56017;48.680;8.998;2023-04-26T13:17:09;96620;;;17.1;75.5
68965;BME280;56017;48.680;8.998;2023-04-26T13:19:40;96620;;;17.4;76.5
68965;BME280;56017;48.680;8.998;2023-04-26T13:22:11;96620;;;17.7;76.5
68965;BME280;56017;48.680;8.998;2023-04-26T13:24:42;96620;;;18;76
68965;BME280;56017;48.680;8.998;2023-04-26T13:27:13;96620;;;18.1;75.5
68965;BME280;56017;48.680;8.998;2023-04-26T13:29:44;96610;;;17.6;74.5
68965;BME280;56017;48.680;8.998;2023-04-26T13:32:15;96610;;;17.5;75.5
68965;BME280;56017;48.680;8.998;2023-04-26T13:34:46;96610;;;17.8;75.5
68965;BME280;56017;48.680;8.998;2023-04-26T13:42:19;96620;;;17.7;76
68965;BME280;56017;48.680;8.998;2023-04-26T13:44:50;96620;;;17.3;76.5
68965;BME280;56017;48.680;8.998;2023-04-26T13:49:52;96610;;;17.2;78
68965;BME280;56017;48.680;8.998;2023-04-26T13:52:30;96600;;;17.5;77
68965;BME280;56017;48.680;8.998;2023-04-26T13:54:54;96610;;;17.9;76.5
68965;BME280;56017;48.680;8.998;2023-04-26T13:57:25;96600;;;17.9;77
68965;BME280;56017;48.680;8.998;2023-04-26T14:04:58;96600;;;16.5;77.5
68965;BME280;56017;48.680;8.998;2023-04-26T14:07:44;96600;;;16.8;78.5
68965;BME280;56017;48.680;8.998;2023-04-26T14:09:59;96600;;;17.1;78.5
68965;BME280;56017;48.680;8.998;2023-04-26T14:12:30;96600;;;16.7;78
68965;BME280;56017;48.680;8.998;2023-04-26T14:15:01;96600;;;16.5;79
68965;BME280;56017;48.680;8.998;2023-04-26T14:17:39;96600;;;16.7;79
68965;BME280;56017;48.680;8.998;2023-04-26T14:20:03;96600;;;17.6;79
68965;BME280;56017;48.680;8.998;2023-04-26T14:22:34;96600;;;18.2;78
68965;BME280;56017;48.680;8.998;2023-04-26T14:25:05;96590;;;18.8;77.5
68965;BME280;56017;48.680;8.998;2023-04-26T14:27:36;96590;;;19.1;76.5
68965;BME280;56017;48.680;8.998;2023-04-26T14:30:07;96590;;;19.5;76.5
68965;BME280;56017;48.680;8.998;2023-04-26T14:32:38;96580;;;19;77
68965;BME280;56017;48.680;8.998;2023-04-26T14:35:09;96590;;;18.2;77
68965;BME280;56017;48.680;8.998;2023-04-26T14:40:18;96590;;;16.4;80
68965;BME280;56017;48.680;8.998;2023-04-26T14:42:49;96590;;;16.9;80.5
68965;BME280;56017;48.680;8.998;2023-04-26T14:45:13;96590;;;17.9;79.5
68965;BME280;56017;48.680;8.998;2023-04-26T14:50:15;96590;;;17.6;78.5
68965;BME280;56017;48.680;8.998;2023-04-26T14:52:54;96600;;;16.9;79
68965;BME280;56017;48.680;8.998;2023-04-26T14:55:17;96590;;;16.4;80
68965;BME280;56017;48.680;8.998;2023-04-26T14:57:48;96590;;;16.1;79.5
68965;BME280;56017;48.680;8.998;2023-04-26T15:00:18;96590;;;15.8;80.5
68965;BME280;56017;48.680;8.998;2023-04-26T15:05:20;96590;;;15.7;79
68965;BME280;56017;48.680;8.998;2023-04-26T15:07:51;96590;;;15.5;80.5
68965;BME280;56017;48.680;8.998;2023-04-26T15:10:22;96590;;;15.6;80
68965;BME280;56017;48.680;8.998;2023-04-26T15:12:53;96590;;;15.6;80
68965;BME280;56017;48.680;8.998;2023-04-26T15:15:24;96590;;;15.1;80
68965;BME280;56017;48.680;8.998;2023-04-26T15:20:26;96590;;;15;81
68965;BME280;56017;48.680;8.998;2023-04-26T15:27:59;96570;;;16.5;79.5
68965;BME280;56017;48.680;8.998;2023-04-26T15:30:30;96570;;;17;78
68965;BME280;56017;48.680;8.998;2023-04-26T15:33:03;96570;;;16.7;79
68965;BME280;56017;48.680;8.998;2023-04-26T15:35:32;96570;;;16.6;79
68965;BME280;56017;48.680;8.998;2023-04-26T15:43:05;96570;;;18.1;77
68965;BME280;56017;48.680;8.998;2023-04-26T15:45:36;96570;;;17.4;77.5
68965;BME280;56017;48.680;8.998;2023-04-26T15:48:14;96570;;;16.5;79.5
68965;BME280;56017;48.680;8.998;2023-04-26T15:50:38;96570;;;16.1;80
68965;BME280;56017;48.680;8.998;2023-04-26T15:53:15;96570;;;16.2;80.5
68965;BME280;56017;48.680;8.998;2023-04-26T15:55:40;96570;;;16.1;80.5
68965;BME280;56017;48.680;8.998;2023-04-26T16:00:42;96570;;;16.1;80
68965;BME280;56017;48.680;8.998;2023-04-26T16:03:13;96570;;;16.7;79
68965;BME280;56017;48.680;8.998;2023-04-26T16:08:22;96580;;;15.5;79.5
68965;BME280;56017;48.680;8.998;2023-04-26T16:10:45;96580;;;15;80.5
68965;BME280;56017;48.680;8.998;2023-04-26T16:13:16;96580;;;14.9;81
68965;BME280;56017;48.680;8.998;2023-04-26T16:15:47;96580;;;15.1;80
68965;BME280;56017;48.680;8.998;2023-04-26T16:18:18;96580;;;14.8;80.5
68965;BME280;56017;48.680;8.998;2023-04-26T16:20:49;96590;;;14.6;81
68965;BME280;56017;48.680;8.998;2023-04-26T16:25:53;96580;;;15.4;80
68965;BME280;56017;48.680;8.998;2023-04-26T16:28:30;96580;;;16.3;78
68965;BME280;56017;48.680;8.998;2023-04-26T16:30:53;96580;;;16.8;78
68965;BME280;56017;48.680;8.998;2023-04-26T16:38:33;96570;;;18.5;75
68965;BME280;56017;48.680;8.998;2023-04-26T16:40:58;96570;;;17.9;76
68965;BME280;56017;48.680;8.998;2023-04-26T16:46:00;96570;;;17.6;76.5
68965;BME280;56017;48.680;8.998;2023-04-26T16:48:31;96580;;;16.9;77
68965;BME280;56017;48.680;8.998;2023-04-26T16:51:03;96580;;;16.3;77.5
68965;BME280;56017;48.680;8.998;2023-04-26T16:56:13;96580;;;16.3;77.5
68965;BME280;56017;48.680;8.998;2023-04-26T16:58:34;96580;;;16.5;77
68965;BME280;56017;48.680;8.998;2023-04-26T17:01:05;96580;;;16.2;77
68965;BME280;56017;48.680;8.998;2023-04-26T17:03:43;96580;;;15.6;77
68965;BME280;56017;48.680;8.998;2023-04-26T17:06:08;96580;;;15.1;77.5
68965;BME280;56017;48.680;8.998;2023-04-26T17:08:38;96590;;;14.8;78
68965;BME280;56017;48.680;8.998;2023-04-26T17:11:11;96590;;;14.7;78.5
68965;BME280;56017;48.680;8.998;2023-04-26T17:13:40;96580;;;14.9;78
68965;BME280;56017;48.680;8.998;2023-04-26T17:16:11;96590;;;14.9;78
68965;BME280;56017;48.680;8.998;2023-04-26T17:18:42;96590;;;14.9;78
68965;BME280;56017;48.680;8.998;2023-04-26T17:21:13;96600;;;14.8;77.5